createdAt,value
2022-10-06T00:01:45.763Z,11.20
2022-10-06T00:04:16.921Z,11.30
2022-10-06T00:06:48.163Z,11.30
2022-10-06T00:09:19.508Z,11.30
2022-10-06T00:11:50.956Z,11.40
2022-10-06T00:14:22.316Z,11.40
2022-10-06T00:16:53.725Z,11.50
2022-10-06T00:19:25.372Z,11.50
2022-10-06T00:21:58.655Z,11.50
2022-10-06T00:24:29.982Z,11.50
2022-10-06T00:27:01.297Z,11.50
2022-10-06T00:29:32.808Z,11.40
2022-10-06T00:32:04.231Z,11.30
2022-10-06T00:34:36.529Z,11.20
2022-10-06T00:37:07.954Z,11.20
2022-10-06T00:39:39.176Z,11.20
2022-10-06T00:42:24.178Z,11.20
2022-10-06T00:44:55.754Z,11.00
2022-10-06T00:47:30.101Z,11.00
2022-10-06T00:50:02.753Z,10.90
2022-10-06T00:52:34.096Z,10.90
2022-10-06T00:55:08.923Z,11.00
2022-10-06T00:57:41.405Z,11.00
2022-10-06T01:00:15.085Z,11.10
2022-10-06T01:02:49.820Z,11.20
2022-10-06T01:05:24.490Z,11.20
2022-10-06T01:07:56.430Z,11.00
2022-10-06T01:10:31.009Z,10.90
2022-10-06T01:13:03.168Z,10.80
2022-10-06T01:15:35.405Z,10.80
2022-10-06T01:18:09.895Z,10.90
2022-10-06T01:20:44.131Z,11.00
2022-10-06T01:23:16.085Z,11.10
2022-10-06T01:25:48.762Z,11.20
2022-10-06T01:28:20.283Z,11.20
2022-10-06T01:30:54.916Z,11.30
2022-10-06T01:33:26.335Z,11.30
2022-10-06T01:35:58.243Z,11.10
2022-10-06T01:38:29.961Z,11.10
2022-10-06T01:41:01.542Z,11.00
2022-10-06T01:43:32.747Z,10.90
2022-10-06T01:46:04.073Z,10.80
2022-10-06T01:48:37.186Z,10.80
2022-10-06T01:51:09.174Z,10.90
2022-10-06T01:53:40.396Z,11.10
2022-10-06T01:56:11.953Z,11.20
2022-10-06T01:58:43.112Z,11.20
2022-10-06T02:01:14.572Z,11.20
2022-10-06T02:03:46.485Z,11.10
2022-10-06T02:06:17.831Z,11.00
2022-10-06T02:08:49.066Z,10.90
2022-10-06T02:11:20.430Z,10.80
2022-10-06T02:13:51.504Z,10.70
2022-10-06T02:16:22.111Z,10.70
2022-10-06T02:18:54.884Z,10.60
2022-10-06T02:21:26.633Z,10.50
2022-10-06T02:23:57.840Z,10.40
2022-10-06T02:26:30.452Z,10.40
2022-10-06T02:29:01.861Z,10.40
2022-10-06T02:31:33.181Z,10.40
2022-10-06T02:34:04.427Z,10.40
2022-10-06T02:36:34.105Z,10.30
2022-10-06T02:39:05.710Z,10.30
2022-10-06T02:41:37.254Z,10.20
2022-10-06T02:44:08.572Z,10.20
2022-10-06T02:46:39.985Z,10.10
2022-10-06T02:49:11.306Z,10.10
2022-10-06T02:51:42.638Z,10.00
2022-10-06T02:54:13.894Z,10.00
2022-10-06T02:56:45.676Z,9.90
2022-10-06T02:59:16.870Z,9.90
2022-10-06T03:01:48.281Z,9.90
2022-10-06T03:04:20.030Z,9.90
2022-10-06T03:06:51.615Z,9.90
2022-10-06T03:09:22.964Z,9.80
2022-10-06T03:11:54.275Z,9.80
2022-10-06T03:14:25.665Z,9.80
2022-10-06T03:16:57.326Z,9.80
2022-10-06T03:19:28.631Z,9.70
2022-10-06T03:22:00.414Z,9.70
2022-10-06T03:24:31.662Z,9.70
2022-10-06T03:27:03.416Z,9.70
2022-10-06T03:29:34.953Z,9.60
2022-10-06T03:32:06.294Z,9.60
2022-10-06T03:34:37.610Z,9.60
2022-10-06T03:37:20.589Z,9.60
2022-10-06T03:39:51.796Z,9.60
2022-10-06T03:42:22.928Z,9.60
2022-10-06T03:44:54.133Z,9.50
2022-10-06T03:47:25.344Z,9.50
2022-10-06T03:49:56.578Z,9.50
2022-10-06T03:52:27.881Z,9.40
2022-10-06T03:55:00.224Z,9.40
2022-10-06T03:57:31.879Z,9.40
2022-10-06T04:00:03.136Z,9.30
2022-10-06T04:02:34.401Z,9.20
2022-10-06T04:05:06.417Z,9.20
2022-10-06T04:07:37.599Z,9.20
2022-10-06T04:10:11.699Z,9.20
2022-10-06T04:12:42.891Z,9.20
2022-10-06T04:15:14.734Z,9.20
2022-10-06T04:17:45.946Z,9.20
2022-10-06T04:20:17.457Z,9.20
2022-10-06T04:22:50.204Z,9.20
2022-10-06T04:25:21.381Z,9.20
2022-10-06T04:27:53.510Z,9.20
2022-10-06T04:30:26.122Z,9.20
2022-10-06T04:32:57.789Z,9.30
2022-10-06T04:35:29.067Z,9.40
2022-10-06T04:38:00.401Z,9.50
2022-10-06T04:40:31.929Z,9.50
2022-10-06T04:43:03.044Z,9.60
2022-10-06T04:45:34.299Z,9.60
2022-10-06T04:48:05.806Z,9.70
2022-10-06T04:50:37.237Z,9.80
2022-10-06T04:53:08.620Z,9.90
2022-10-06T04:55:39.823Z,9.90
2022-10-06T04:58:11.450Z,9.90
2022-10-06T05:00:42.864Z,9.80
2022-10-06T05:03:14.613Z,9.70
2022-10-06T05:05:45.682Z,9.70
2022-10-06T05:08:15.672Z,9.70
2022-10-06T05:10:46.762Z,9.70
2022-10-06T05:13:18.161Z,9.60
2022-10-06T05:15:58.582Z,9.60
2022-10-06T05:18:32.045Z,9.50
2022-10-06T05:21:06.749Z,9.50
2022-10-06T05:23:40.552Z,9.50
2022-10-06T05:26:13.668Z,9.40
2022-10-06T05:28:45.078Z,9.30
2022-10-06T05:31:18.631Z,9.30
2022-10-06T05:33:50.638Z,9.30
2022-10-06T05:36:23.748Z,9.30
2022-10-06T05:38:56.077Z,9.40
2022-10-06T05:41:29.407Z,9.40
2022-10-06T05:44:01.408Z,9.50
2022-10-06T05:46:34.275Z,9.60
2022-10-06T05:49:07.977Z,9.60
2022-10-06T05:51:40.438Z,9.60
2022-10-06T05:54:13.319Z,9.60
2022-10-06T05:56:44.765Z,9.60
2022-10-06T05:59:16.052Z,9.60
2022-10-06T06:01:47.268Z,9.50
2022-10-06T06:04:19.097Z,9.60
2022-10-06T06:06:50.553Z,9.70
2022-10-06T06:09:23.464Z,10.30
2022-10-06T06:11:54.618Z,11.00
2022-10-06T06:14:45.501Z,11.70
2022-10-06T06:17:16.743Z,12.10
2022-10-06T06:19:47.889Z,12.50
2022-10-06T06:22:19.110Z,12.60
2022-10-06T06:24:50.410Z,12.60
2022-10-06T06:27:21.572Z,12.30
2022-10-06T06:29:52.759Z,12.00
2022-10-06T06:32:24.858Z,11.60
2022-10-06T06:34:56.142Z,11.30
2022-10-06T06:37:29.075Z,11.20
2022-10-06T06:40:00.406Z,11.10
2022-10-06T06:42:31.633Z,11.00
2022-10-06T06:45:02.910Z,11.00
2022-10-06T06:47:35.253Z,11.00
2022-10-06T06:50:09.378Z,11.00
2022-10-06T06:52:41.882Z,11.00
2022-10-06T06:55:13.377Z,11.10
2022-10-06T06:57:46.597Z,11.20
2022-10-06T07:00:18.122Z,11.30
2022-10-06T07:02:52.639Z,11.40
2022-10-06T07:05:24.071Z,11.40
2022-10-06T07:07:55.463Z,11.40
2022-10-06T07:10:28.124Z,11.40
2022-10-06T07:12:59.568Z,11.40
2022-10-06T07:15:48.983Z,11.40
2022-10-06T07:18:37.687Z,11.40
2022-10-06T07:21:34.378Z,11.50
2022-10-06T07:24:23.423Z,11.60
2022-10-06T07:26:54.507Z,11.80
2022-10-06T07:29:25.998Z,12.00
2022-10-06T07:31:57.442Z,12.10
2022-10-06T07:34:30.602Z,12.30
2022-10-06T07:37:04.190Z,12.50
2022-10-06T07:39:34.328Z,12.60
2022-10-06T07:42:10.707Z,12.70
2022-10-06T07:44:42.244Z,12.80
2022-10-06T07:47:13.591Z,13.00
2022-10-06T07:49:46.598Z,13.10
2022-10-06T07:52:17.777Z,13.30
2022-10-06T07:54:50.614Z,13.40
2022-10-06T07:57:22.116Z,13.50
2022-10-06T07:59:53.592Z,13.60
2022-10-06T08:02:28.338Z,13.70
2022-10-06T08:04:59.839Z,13.70
2022-10-06T08:07:32.056Z,13.80
2022-10-06T08:10:03.358Z,13.90
2022-10-06T08:12:34.728Z,13.90
2022-10-06T08:15:08.948Z,13.90
2022-10-06T08:17:40.772Z,14.00
2022-10-06T08:20:13.964Z,14.10
2022-10-06T08:22:47.161Z,14.20
2022-10-06T08:25:18.666Z,14.30
2022-10-06T08:27:53.497Z,14.40
2022-10-06T08:30:24.879Z,14.50
2022-10-06T08:32:57.306Z,14.60
2022-10-06T08:35:29.217Z,14.70
2022-10-06T08:38:01.857Z,14.80
2022-10-06T08:40:35.157Z,14.90
2022-10-06T08:43:07.870Z,15.00
2022-10-06T08:45:42.390Z,15.00
2022-10-06T08:48:16.604Z,15.10
2022-10-06T08:50:53.880Z,15.10
2022-10-06T08:53:28.372Z,15.20
2022-10-06T08:56:05.041Z,15.30
2022-10-06T08:58:43.617Z,15.40
2022-10-06T09:01:19.146Z,15.50
2022-10-06T09:03:52.312Z,15.60
2022-10-06T09:06:44.337Z,15.70
2022-10-06T09:09:25.859Z,15.90
2022-10-06T09:12:03.437Z,16.00
2022-10-06T09:14:39.026Z,16.10
2022-10-06T09:17:13.279Z,16.20
2022-10-06T09:19:51.625Z,16.20
2022-10-06T09:22:25.658Z,16.30
2022-10-06T09:25:00.360Z,16.50
2022-10-06T09:27:34.078Z,16.60
2022-10-06T09:30:08.533Z,16.70
2022-10-06T09:32:41.590Z,16.80
2022-10-06T09:35:21.280Z,16.90
2022-10-06T09:37:57.112Z,17.00
2022-10-06T09:40:44.491Z,17.00
2022-10-06T09:43:22.788Z,17.10
2022-10-06T09:45:54.750Z,17.10
2022-10-06T09:48:27.746Z,17.20
2022-10-06T09:51:15.781Z,17.30
2022-10-06T09:54:00.401Z,17.40
2022-10-06T09:56:33.299Z,17.40
2022-10-06T09:59:04.601Z,17.50
2022-10-06T10:01:35.822Z,17.50
2022-10-06T10:04:20.912Z,17.50
2022-10-06T10:06:44.903Z,17.50
2022-10-06T10:09:36.572Z,17.60
2022-10-06T10:12:27.981Z,17.70
2022-10-06T10:15:03.566Z,17.70
2022-10-06T10:17:41.963Z,17.80
2022-10-06T10:23:31.171Z,18.00
2022-10-06T10:26:18.402Z,18.00
2022-10-06T10:29:18.217Z,18.10
2022-10-06T10:31:58.147Z,18.20
2022-10-06T10:34:39.208Z,18.20
2022-10-06T10:37:14.558Z,18.30
2022-10-06T10:39:49.666Z,18.40
2022-10-06T10:42:24.703Z,18.50
2022-10-06T10:44:59.389Z,18.60
2022-10-06T10:47:34.499Z,18.60
2022-10-06T10:50:09.509Z,18.60
2022-10-06T10:52:43.763Z,18.70
2022-10-06T10:55:26.090Z,18.90
2022-10-06T10:58:00.743Z,19.10
2022-10-06T11:00:35.457Z,19.30
2022-10-06T11:03:07.004Z,19.40
2022-10-06T11:05:48.415Z,19.50
2022-10-06T11:08:24.974Z,19.70
2022-10-06T11:10:59.585Z,19.80
2022-10-06T11:13:34.692Z,19.70
2022-10-06T11:16:15.466Z,19.60
2022-10-06T11:19:02.531Z,19.60
2022-10-06T11:21:37.571Z,19.80
2022-10-06T11:24:15.541Z,19.80
2022-10-06T11:27:03.215Z,19.80
2022-10-06T11:29:40.544Z,19.80
2022-10-06T11:32:19.882Z,19.90
2022-10-06T11:34:52.500Z,19.90
2022-10-06T11:37:30.239Z,20.00
2022-10-06T11:40:06.973Z,20.10
2022-10-06T11:42:41.407Z,20.30
2022-10-06T11:45:15.841Z,20.30
2022-10-06T11:47:54.492Z,20.30
2022-10-06T11:50:36.759Z,20.40
2022-10-06T11:53:11.479Z,20.50
2022-10-06T11:55:42.628Z,20.60
2022-10-06T12:00:52.625Z,20.70
2022-10-06T12:04:10.644Z,20.70
2022-10-06T12:07:02.765Z,20.70
2022-10-06T12:10:17.898Z,20.70
2022-10-06T12:13:07.019Z,20.80
2022-10-06T12:18:48.557Z,20.90
2022-10-06T12:21:40.011Z,20.90
2022-10-06T12:24:23.948Z,20.90
2022-10-06T12:27:02.798Z,20.90
2022-10-06T12:29:43.820Z,20.90
2022-10-06T12:32:24.855Z,20.90
2022-10-06T12:35:06.330Z,20.90
2022-10-06T12:37:53.068Z,20.80
2022-10-06T12:40:49.233Z,20.90
2022-10-06T12:43:54.663Z,20.90
2022-10-06T12:46:41.010Z,20.80
2022-10-06T12:49:37.170Z,20.90
2022-10-06T12:52:32.963Z,21.00
2022-10-06T12:55:36.590Z,21.00
2022-10-06T12:58:12.919Z,21.10
2022-10-06T13:00:45.993Z,21.10
2022-10-06T13:03:20.966Z,21.10
2022-10-06T13:05:54.851Z,21.10
2022-10-06T13:08:27.872Z,21.10
2022-10-06T13:11:22.641Z,21.20
2022-10-06T13:13:55.735Z,21.30
2022-10-06T13:16:29.399Z,21.30
2022-10-06T13:19:01.854Z,21.30
2022-10-06T13:21:34.297Z,21.30
2022-10-06T13:24:06.365Z,21.30
2022-10-06T13:26:37.730Z,21.40
2022-10-06T13:29:19.374Z,21.30
2022-10-06T13:31:53.187Z,21.30
2022-10-06T13:34:28.816Z,21.30
2022-10-06T13:37:01.312Z,21.30
2022-10-06T13:39:32.795Z,21.40
2022-10-06T13:42:07.193Z,21.40
2022-10-06T13:44:41.753Z,21.50
2022-10-06T13:47:18.581Z,21.60
2022-10-06T13:49:52.921Z,21.60
2022-10-06T13:52:27.805Z,21.50
2022-10-06T13:55:00.879Z,21.40
2022-10-06T13:57:40.903Z,21.40
2022-10-06T14:00:21.582Z,21.40
2022-10-06T14:02:55.721Z,21.50
2022-10-06T14:05:31.708Z,21.40
2022-10-06T14:08:05.830Z,21.40
2022-10-06T14:10:40.299Z,21.50
2022-10-06T14:13:16.316Z,21.60
2022-10-06T14:15:52.112Z,21.80
2022-10-06T14:18:25.971Z,21.80
2022-10-06T14:20:58.312Z,21.80
2022-10-06T14:23:45.058Z,21.70
2022-10-06T14:26:18.018Z,21.80
2022-10-06T14:28:52.845Z,21.70
2022-10-06T14:31:25.990Z,21.70
2022-10-06T14:33:58.018Z,21.60
2022-10-06T14:36:31.150Z,21.70
2022-10-06T14:39:03.868Z,21.50
2022-10-06T14:41:35.374Z,21.60
2022-10-06T14:44:09.564Z,21.50
2022-10-06T14:46:42.989Z,21.40
2022-10-06T14:49:14.647Z,21.40
2022-10-06T14:51:46.920Z,21.40
2022-10-06T14:54:19.848Z,21.40
2022-10-06T14:56:53.285Z,21.30
2022-10-06T14:59:24.814Z,21.20
2022-10-06T15:01:56.215Z,21.30
2022-10-06T15:04:28.250Z,21.30
2022-10-06T15:07:17.719Z,21.40
2022-10-06T15:09:48.996Z,21.50
2022-10-06T15:12:20.387Z,21.50
2022-10-06T15:14:51.646Z,21.50
2022-10-06T15:17:24.304Z,21.50
2022-10-06T15:19:55.454Z,21.50
2022-10-06T15:22:26.806Z,21.50
2022-10-06T15:24:57.941Z,21.40
2022-10-06T15:27:46.772Z,21.30
2022-10-06T15:30:19.133Z,21.20
2022-10-06T15:32:51.015Z,21.00
2022-10-06T15:35:22.381Z,20.80
2022-10-06T15:37:55.393Z,20.70
2022-10-06T15:40:26.799Z,20.60
2022-10-06T15:42:57.912Z,20.50
2022-10-06T15:45:28.819Z,20.40
2022-10-06T15:48:00.033Z,20.40
2022-10-06T15:50:31.289Z,20.30
2022-10-06T15:53:03.387Z,20.20
2022-10-06T15:55:34.656Z,20.20
2022-10-06T15:58:06.179Z,20.10
2022-10-06T16:00:37.663Z,20.10
2022-10-06T16:03:10.588Z,20.10
2022-10-06T16:05:48.074Z,20.00
2022-10-06T16:08:19.707Z,20.00
2022-10-06T16:10:52.287Z,19.90
2022-10-06T16:13:24.421Z,19.80
2022-10-06T16:15:56.817Z,19.80
2022-10-06T16:18:28.544Z,19.70
2022-10-06T16:21:00.096Z,19.70
2022-10-06T16:23:31.250Z,19.60
2022-10-06T16:26:04.467Z,19.60
2022-10-06T16:28:35.912Z,19.50
2022-10-06T16:31:07.432Z,19.50
2022-10-06T16:33:38.907Z,19.40
2022-10-06T16:36:12.474Z,19.30
2022-10-06T16:38:44.388Z,19.30
2022-10-06T16:41:15.744Z,19.20
2022-10-06T16:43:49.140Z,19.20
2022-10-06T16:46:22.698Z,19.10
2022-10-06T16:48:56.208Z,19.10
2022-10-06T16:51:29.286Z,19.00
2022-10-06T16:54:02.728Z,18.90
2022-10-06T16:56:35.796Z,18.90
2022-10-06T16:59:09.349Z,18.80
2022-10-06T17:01:40.866Z,18.70
2022-10-06T17:04:14.335Z,18.60
2022-10-06T17:06:47.145Z,18.60
2022-10-06T17:09:20.940Z,18.60
2022-10-06T17:11:55.077Z,18.50
2022-10-06T17:14:26.695Z,18.50
2022-10-06T17:16:58.602Z,18.50
2022-10-06T17:19:31.383Z,18.40
2022-10-06T17:22:02.546Z,18.40
2022-10-06T17:24:33.915Z,18.40
2022-10-06T17:27:05.587Z,18.30
2022-10-06T17:29:36.982Z,18.20
2022-10-06T17:32:08.808Z,18.20
2022-10-06T17:34:40.971Z,18.10
2022-10-06T17:37:12.196Z,18.00
2022-10-06T17:39:47.021Z,17.90
2022-10-06T17:42:16.874Z,17.90
2022-10-06T17:44:48.167Z,17.90
2022-10-06T17:47:19.412Z,17.90
2022-10-06T17:49:50.940Z,17.80
2022-10-06T17:52:24.346Z,17.90
2022-10-06T17:54:57.000Z,17.80
2022-10-06T17:57:29.622Z,17.80
2022-10-06T18:00:01.173Z,17.80
2022-10-06T18:06:39.098Z,17.80
2022-10-06T18:09:10.809Z,17.70
2022-10-06T18:11:43.940Z,17.70
2022-10-06T18:14:17.904Z,17.70
2022-10-06T18:17:27.613Z,17.70
2022-10-06T18:19:59.118Z,17.70
2022-10-06T18:22:30.438Z,17.70
2022-10-06T18:25:02.239Z,17.60
2022-10-06T18:27:33.965Z,17.60
2022-10-06T18:30:06.911Z,17.60
2022-10-06T18:34:58.798Z,17.60
2022-10-06T18:37:45.190Z,17.50
2022-10-06T18:40:16.936Z,17.50
2022-10-06T18:46:25.552Z,17.50
2022-10-06T18:48:58.375Z,17.50
2022-10-06T18:51:33.549Z,17.50
2022-10-06T18:54:08.016Z,17.40
2022-10-06T18:56:40.754Z,17.40
2022-10-06T18:59:14.348Z,17.40
2022-10-06T19:01:47.710Z,17.30
2022-10-06T19:04:21.459Z,17.20
2022-10-06T19:06:55.188Z,17.20
2022-10-06T19:09:26.844Z,17.20
2022-10-06T19:11:58.870Z,17.20
2022-10-06T19:14:34.149Z,17.20
2022-10-06T19:17:08.971Z,17.10
2022-10-06T19:19:40.899Z,17.00
2022-10-06T19:22:14.237Z,16.90
2022-10-06T19:24:48.649Z,16.90
2022-10-06T19:27:26.215Z,16.90
2022-10-06T19:29:57.624Z,16.80
2022-10-06T19:32:32.144Z,16.70
2022-10-06T19:35:09.194Z,16.70
2022-10-06T19:37:39.468Z,16.80
2022-10-06T19:40:11.541Z,16.80
2022-10-06T19:42:49.569Z,16.70
2022-10-06T19:45:21.282Z,16.70
2022-10-06T19:47:52.844Z,16.70
2022-10-06T19:50:24.335Z,16.70
2022-10-06T19:52:55.690Z,16.70
2022-10-06T19:55:28.669Z,16.60
2022-10-06T19:58:00.501Z,16.60
2022-10-06T20:00:31.819Z,16.50
2022-10-06T20:06:17.787Z,16.20
2022-10-06T20:08:49.503Z,16.10
2022-10-06T20:11:22.833Z,16.00
2022-10-06T20:18:15.722Z,15.80
2022-10-06T20:24:18.045Z,15.60
2022-10-06T20:26:50.768Z,15.50
2022-10-06T20:29:23.539Z,15.50
2022-10-06T20:31:58.637Z,15.50
2022-10-06T20:34:32.391Z,15.40
2022-10-06T20:37:05.558Z,15.40
2022-10-06T20:39:54.565Z,15.30
2022-10-06T20:42:52.010Z,15.20
2022-10-06T20:45:23.398Z,15.10
2022-10-06T20:47:54.787Z,15.00
2022-10-06T20:50:26.432Z,15.00
2022-10-06T20:52:58.402Z,15.00
2022-10-06T20:55:29.905Z,14.90
2022-10-06T20:58:01.205Z,14.80
2022-10-06T21:00:32.624Z,14.70
2022-10-06T21:03:05.039Z,14.70
2022-10-06T21:05:36.339Z,14.70
2022-10-06T21:08:07.897Z,14.70
2022-10-06T21:10:39.136Z,14.60
2022-10-06T21:13:10.505Z,14.50
2022-10-06T21:15:45.983Z,14.50
2022-10-06T21:18:17.421Z,14.40
2022-10-06T21:20:57.528Z,14.40
2022-10-06T21:23:29.752Z,14.30
2022-10-06T21:26:02.719Z,14.20
2022-10-06T21:28:34.543Z,14.20
2022-10-06T21:31:08.382Z,14.10
2022-10-06T21:33:41.776Z,14.10
2022-10-06T21:36:15.444Z,14.00
2022-10-06T21:38:48.382Z,14.00
2022-10-06T21:41:31.776Z,13.90
2022-10-06T21:44:05.140Z,13.90
2022-10-06T21:46:38.057Z,13.80
2022-10-06T21:49:11.820Z,13.80
2022-10-06T21:51:45.634Z,13.70
2022-10-06T21:54:17.024Z,13.70
2022-10-06T21:56:51.766Z,13.60
2022-10-06T21:59:23.095Z,13.60
2022-10-06T22:01:54.442Z,13.60
2022-10-06T22:04:26.007Z,13.60
2022-10-06T22:06:57.417Z,13.50
2022-10-06T22:09:28.873Z,13.50
2022-10-06T22:12:00.459Z,13.40
2022-10-06T22:14:31.695Z,13.30
2022-10-06T22:17:04.962Z,13.40
2022-10-06T22:19:36.253Z,13.30
2022-10-06T22:22:07.407Z,13.40
2022-10-06T22:24:38.666Z,13.30
2022-10-06T22:27:09.971Z,13.30
2022-10-06T22:29:41.359Z,13.30
2022-10-06T22:32:12.752Z,13.30
2022-10-06T22:34:44.313Z,13.30
2022-10-06T22:37:15.764Z,13.30
2022-10-06T22:39:47.076Z,13.30
2022-10-06T22:42:18.210Z,13.20
2022-10-06T22:44:49.567Z,13.20
2022-10-06T22:47:21.153Z,13.10
2022-10-06T22:49:52.577Z,13.10
2022-10-06T22:52:23.919Z,13.00
2022-10-06T22:54:55.284Z,13.00
2022-10-06T22:57:26.385Z,13.00
2022-10-06T22:59:57.630Z,13.00
2022-10-06T23:02:28.889Z,13.00
2022-10-06T23:05:00.323Z,13.10
2022-10-06T23:07:31.710Z,13.10
2022-10-06T23:10:02.973Z,13.10
2022-10-06T23:12:34.459Z,13.20
2022-10-06T23:15:04.340Z,13.20
2022-10-06T23:17:35.442Z,13.20
2022-10-06T23:20:07.826Z,13.30
2022-10-06T23:22:39.122Z,13.40
2022-10-06T23:25:11.458Z,13.50
2022-10-06T23:27:43.215Z,13.50
2022-10-06T23:30:15.762Z,13.50
2022-10-06T23:32:47.004Z,13.60
2022-10-06T23:35:18.430Z,13.70
2022-10-06T23:37:49.747Z,13.70
2022-10-06T23:40:21.350Z,13.80
2022-10-06T23:42:52.720Z,13.80
2022-10-06T23:45:23.897Z,13.90
2022-10-06T23:47:55.294Z,13.90
2022-10-06T23:50:26.688Z,14.00
2022-10-06T23:52:58.002Z,14.10
2022-10-06T23:55:29.442Z,14.10
2022-10-06T23:58:00.700Z,14.20
